sensor_id;sensor_type;location;lat;lon;timestamp;temperature;humidity
25482;DHT22;13395;50.752;4.268;2024-02-15T00:02:06;14.40;99.90
25482;DHT22;13395;50.752;4.268;2024-02-15T00:04:32;14.30;99.90
25482;DHT22;13395;50.752;4.268;2024-02-15T00:06:58;14.30;99.90
25482;DHT22;13395;50.752;4.268;2024-02-15T00:09:25;14.20;99.90
25482;DHT22;13395;50.752;4.268;2024-02-15T00:11:51;14.30;99.90
25482;DHT22;13395;50.752;4.268;2024-02-15T00:14:16;14.30;99.90
25482;DHT22;13395;50.752;4.268;2024-02-15T00:16:42;14.40;99.90
25482;DHT22;13395;50.752;4.268;2024-02-15T00:19:08;14.30;99.90
25482;DHT22;13395;50.752;4.268;2024-02-15T00:21:33;14.20;99.90
25482;DHT22;13395;50.752;4.268;2024-02-15T00:23:59;14.20;99.90
25482;DHT22;13395;50.752;4.268;2024-02-15T00:26:25;14.30;99.90
25482;DHT22;13395;50.752;4.268;2024-02-15T00:28:51;14.30;99.90
25482;DHT22;13395;50.752;4.268;2024-02-15T00:31:16;14.30;99.90
25482;DHT22;13395;50.752;4.268;2024-02-15T00:33:42;14.30;99.90
25482;DHT22;13395;50.752;4.268;2024-02-15T00:36:08;14.30;99.90
25482;DHT22;13395;50.752;4.268;2024-02-15T00:38:33;14.30;99.90
25482;DHT22;13395;50.752;4.268;2024-02-15T00:40:59;14.30;99.90
25482;DHT22;13395;50.752;4.268;2024-02-15T00:43:28;14.10;99.90
25482;DHT22;13395;50.752;4.268;2024-02-15T00:45:54;14.20;99.90
25482;DHT22;13395;50.752;4.268;2024-02-15T00:48:19;14.30;99.90
25482;DHT22;13395;50.752;4.268;2024-02-15T00:50:45;14.30;99.90
25482;DHT22;13395;50.752;4.268;2024-02-15T00:53:11;14.10;99.90
25482;DHT22;13395;50.752;4.268;2024-02-15T00:55:36;14.20;99.90
25482;DHT22;13395;50.752;4.268;2024-02-15T00:58:02;14.10;99.90
25482;DHT22;13395;50.752;4.268;2024-02-15T01:00:27;14.00;99.90
25482;DHT22;13395;50.752;4.268;2024-02-15T01:02:53;14.10;99.90
25482;DHT22;13395;50.752;4.268;2024-02-15T01:05:19;14.10;99.90
25482;DHT22;13395;50.752;4.268;2024-02-15T01:07:45;13.90;99.90
25482;DHT22;13395;50.752;4.268;2024-02-15T01:10:10;13.90;99.90
25482;DHT22;13395;50.752;4.268;2024-02-15T01:12:37;13.80;99.90
25482;DHT22;13395;50.752;4.268;2024-02-15T01:15:02;13.90;99.90
25482;DHT22;13395;50.752;4.268;2024-02-15T01:17:28;13.80;99.90
25482;DHT22;13395;50.752;4.268;2024-02-15T01:19:54;13.80;99.90
25482;DHT22;13395;50.752;4.268;2024-02-15T01:22:20;13.80;99.90
25482;DHT22;13395;50.752;4.268;2024-02-15T01:24:48;13.80;99.90
25482;DHT22;13395;50.752;4.268;2024-02-15T01:27:14;13.90;99.90
25482;DHT22;13395;50.752;4.268;2024-02-15T01:29:39;13.90;99.90
25482;DHT22;13395;50.752;4.268;2024-02-15T01:32:05;14.00;99.90
25482;DHT22;13395;50.752;4.268;2024-02-15T01:34:30;14.10;99.90
25482;DHT22;13395;50.752;4.268;2024-02-15T01:36:56;14.20;99.90
25482;DHT22;13395;50.752;4.268;2024-02-15T01:39:22;14.20;99.90
25482;DHT22;13395;50.752;4.268;2024-02-15T01:41:47;14.10;99.90
25482;DHT22;13395;50.752;4.268;2024-02-15T01:44:17;14.10;99.90
25482;DHT22;13395;50.752;4.268;2024-02-15T01:46:45;14.10;99.90
25482;DHT22;13395;50.752;4.268;2024-02-15T01:49:13;14.20;99.90
25482;DHT22;13395;50.752;4.268;2024-02-15T01:51:38;14.20;99.90
25482;DHT22;13395;50.752;4.268;2024-02-15T01:54:06;14.20;99.90
25482;DHT22;13395;50.752;4.268;2024-02-15T01:56:32;14.20;99.90
25482;DHT22;13395;50.752;4.268;2024-02-15T01:58:57;14.20;99.90
25482;DHT22;13395;50.752;4.268;2024-02-15T02:01:23;14.30;99.90
25482;DHT22;13395;50.752;4.268;2024-02-15T02:03:48;14.20;99.90
25482;DHT22;13395;50.752;4.268;2024-02-15T02:06:14;14.10;99.90
25482;DHT22;13395;50.752;4.268;2024-02-15T02:08:40;14.10;99.90
25482;DHT22;13395;50.752;4.268;2024-02-15T02:11:06;14.10;99.90
25482;DHT22;13395;50.752;4.268;2024-02-15T02:13:31;14.10;99.90
25482;DHT22;13395;50.752;4.268;2024-02-15T02:15:57;14.10;99.90
25482;DHT22;13395;50.752;4.268;2024-02-15T02:18:22;14.00;99.90
25482;DHT22;13395;50.752;4.268;2024-02-15T02:20:49;14.00;99.90
25482;DHT22;13395;50.752;4.268;2024-02-15T02:23:15;14.10;99.90
25482;DHT22;13395;50.752;4.268;2024-02-15T02:25:41;14.10;99.90
25482;DHT22;13395;50.752;4.268;2024-02-15T02:28:08;14.10;99.90
25482;DHT22;13395;50.752;4.268;2024-02-15T02:30:34;14.10;99.90
25482;DHT22;13395;50.752;4.268;2024-02-15T02:33:00;14.20;99.90
25482;DHT22;13395;50.752;4.268;2024-02-15T02:35:27;14.20;99.90
25482;DHT22;13395;50.752;4.268;2024-02-15T02:37:53;14.30;99.90
25482;DHT22;13395;50.752;4.268;2024-02-15T02:40:19;14.30;99.90
25482;DHT22;13395;50.752;4.268;2024-02-15T02:45:13;14.30;99.90
25482;DHT22;13395;50.752;4.268;2024-02-15T02:47:38;14.30;99.90
25482;DHT22;13395;50.752;4.268;2024-02-15T02:50:04;14.40;99.90
25482;DHT22;13395;50.752;4.268;2024-02-15T02:52:30;14.20;99.90
25482;DHT22;13395;50.752;4.268;2024-02-15T02:54:55;14.20;99.90
25482;DHT22;13395;50.752;4.268;2024-02-15T02:57:21;14.30;99.90
25482;DHT22;13395;50.752;4.268;2024-02-15T02:59:46;14.30;99.90
25482;DHT22;13395;50.752;4.268;2024-02-15T03:02:12;14.30;99.90
25482;DHT22;13395;50.752;4.268;2024-02-15T03:04:38;14.30;99.90
25482;DHT22;13395;50.752;4.268;2024-02-15T03:07:05;14.10;99.90
25482;DHT22;13395;50.752;4.268;2024-02-15T03:09:30;14.00;99.90
25482;DHT22;13395;50.752;4.268;2024-02-15T03:11:56;14.00;99.90
25482;DHT22;13395;50.752;4.268;2024-02-15T03:14:22;14.00;99.90
25482;DHT22;13395;50.752;4.268;2024-02-15T03:16:48;13.80;99.90
25482;DHT22;13395;50.752;4.268;2024-02-15T03:19:13;13.80;99.90
25482;DHT22;13395;50.752;4.268;2024-02-15T03:21:39;13.70;99.90
25482;DHT22;13395;50.752;4.268;2024-02-15T03:24:05;13.80;99.90
25482;DHT22;13395;50.752;4.268;2024-02-15T03:26:31;13.90;99.90
25482;DHT22;13395;50.752;4.268;2024-02-15T03:29:04;13.80;99.90
25482;DHT22;13395;50.752;4.268;2024-02-15T03:31:29;13.80;99.90
25482;DHT22;13395;50.752;4.268;2024-02-15T03:33:57;13.80;99.90
25482;DHT22;13395;50.752;4.268;2024-02-15T03:36:22;13.90;99.90
25482;DHT22;13395;50.752;4.268;2024-02-15T03:38:48;13.90;99.90
25482;DHT22;13395;50.752;4.268;2024-02-15T03:41:13;13.90;99.90
25482;DHT22;13395;50.752;4.268;2024-02-15T03:43:39;13.80;99.90
25482;DHT22;13395;50.752;4.268;2024-02-15T03:46:05;13.80;99.90
25482;DHT22;13395;50.752;4.268;2024-02-15T03:48:32;14.00;99.90
25482;DHT22;13395;50.752;4.268;2024-02-15T03:50:58;14.10;99.90
25482;DHT22;13395;50.752;4.268;2024-02-15T03:53:24;14.00;99.90
25482;DHT22;13395;50.752;4.268;2024-02-15T03:55:49;13.90;99.90
25482;DHT22;13395;50.752;4.268;2024-02-15T03:58:18;13.90;99.90
25482;DHT22;13395;50.752;4.268;2024-02-15T04:00:45;13.90;99.90
25482;DHT22;13395;50.752;4.268;2024-02-15T04:03:10;13.80;99.90
25482;DHT22;13395;50.752;4.268;2024-02-15T04:05:36;13.90;99.90
25482;DHT22;13395;50.752;4.268;2024-02-15T04:08:01;13.90;99.90
25482;DHT22;13395;50.752;4.268;2024-02-15T04:10:27;14.00;99.90
25482;DHT22;13395;50.752;4.268;2024-02-15T04:12:53;14.10;99.90
25482;DHT22;13395;50.752;4.268;2024-02-15T04:15:19;14.00;99.90
25482;DHT22;13395;50.752;4.268;2024-02-15T04:17:44;14.00;99.90
25482;DHT22;13395;50.752;4.268;2024-02-15T04:20:10;14.00;99.90
25482;DHT22;13395;50.752;4.268;2024-02-15T04:22:37;14.00;99.90
25482;DHT22;13395;50.752;4.268;2024-02-15T04:25:06;14.10;99.90
25482;DHT22;13395;50.752;4.268;2024-02-15T04:27:32;14.00;99.90
25482;DHT22;13395;50.752;4.268;2024-02-15T04:29:58;14.10;99.90
25482;DHT22;13395;50.752;4.268;2024-02-15T04:32:24;14.10;99.90
25482;DHT22;13395;50.752;4.268;2024-02-15T04:34:50;14.10;99.90
25482;DHT22;13395;50.752;4.268;2024-02-15T04:37:16;14.10;99.90
25482;DHT22;13395;50.752;4.268;2024-02-15T04:39:42;14.10;99.90
25482;DHT22;13395;50.752;4.268;2024-02-15T04:42:08;14.00;99.90
25482;DHT22;13395;50.752;4.268;2024-02-15T04:44:39;14.00;99.90
25482;DHT22;13395;50.752;4.268;2024-02-15T04:47:05;14.10;99.90
25482;DHT22;13395;50.752;4.268;2024-02-15T04:49:31;14.20;99.90
25482;DHT22;13395;50.752;4.268;2024-02-15T04:51:57;14.20;99.90
25482;DHT22;13395;50.752;4.268;2024-02-15T04:54:29;14.10;99.90
25482;DHT22;13395;50.752;4.268;2024-02-15T04:56:54;13.90;99.90
25482;DHT22;13395;50.752;4.268;2024-02-15T04:59:22;14.00;99.90
25482;DHT22;13395;50.752;4.268;2024-02-15T05:01:51;14.00;99.90
25482;DHT22;13395;50.752;4.268;2024-02-15T05:04:17;13.90;99.90
25482;DHT22;13395;50.752;4.268;2024-02-15T05:06:43;14.00;99.90
25482;DHT22;13395;50.752;4.268;2024-02-15T05:09:10;14.00;99.90
25482;DHT22;13395;50.752;4.268;2024-02-15T05:11:39;14.00;99.90
25482;DHT22;13395;50.752;4.268;2024-02-15T05:14:11;14.00;99.90
25482;DHT22;13395;50.752;4.268;2024-02-15T05:16:37;14.00;99.90
25482;DHT22;13395;50.752;4.268;2024-02-15T05:19:08;13.90;99.90
25482;DHT22;13395;50.752;4.268;2024-02-15T05:21:34;13.90;99.90
25482;DHT22;13395;50.752;4.268;2024-02-15T05:23:59;14.00;99.90
25482;DHT22;13395;50.752;4.268;2024-02-15T05:26:25;14.10;99.90
25482;DHT22;13395;50.752;4.268;2024-02-15T05:28:50;14.10;99.90
25482;DHT22;13395;50.752;4.268;2024-02-15T05:31:19;14.00;99.90
25482;DHT22;13395;50.752;4.268;2024-02-15T05:33:49;13.90;99.90
25482;DHT22;13395;50.752;4.268;2024-02-15T05:36:15;13.90;99.90
25482;DHT22;13395;50.752;4.268;2024-02-15T05:38:41;13.90;99.90
25482;DHT22;13395;50.752;4.268;2024-02-15T05:41:06;14.00;99.90
25482;DHT22;13395;50.752;4.268;2024-02-15T05:43:35;14.00;99.90
25482;DHT22;13395;50.752;4.268;2024-02-15T05:46:04;14.10;99.90
25482;DHT22;13395;50.752;4.268;2024-02-15T05:48:30;14.20;99.90
25482;DHT22;13395;50.752;4.268;2024-02-15T05:50:55;14.20;99.90
25482;DHT22;13395;50.752;4.268;2024-02-15T05:53:23;14.20;99.90
25482;DHT22;13395;50.752;4.268;2024-02-15T05:55:48;14.10;99.90
25482;DHT22;13395;50.752;4.268;2024-02-15T05:58:15;14.00;99.90
25482;DHT22;13395;50.752;4.268;2024-02-15T06:00:41;14.10;99.90
25482;DHT22;13395;50.752;4.268;2024-02-15T06:03:06;14.30;99.90
25482;DHT22;13395;50.752;4.268;2024-02-15T06:05:34;14.20;99.90
25482;DHT22;13395;50.752;4.268;2024-02-15T06:08:00;14.20;99.90
25482;DHT22;13395;50.752;4.268;2024-02-15T06:10:25;14.30;99.90
25482;DHT22;13395;50.752;4.268;2024-02-15T06:12:51;14.20;99.90
25482;DHT22;13395;50.752;4.268;2024-02-15T06:15:17;14.20;99.90
25482;DHT22;13395;50.752;4.268;2024-02-15T06:17:42;14.20;99.90
25482;DHT22;13395;50.752;4.268;2024-02-15T06:20:12;14.10;99.90
25482;DHT22;13395;50.752;4.268;2024-02-15T06:22:38;14.20;99.90
25482;DHT22;13395;50.752;4.268;2024-02-15T06:25:04;14.20;99.90
25482;DHT22;13395;50.752;4.268;2024-02-15T06:27:31;14.20;99.90
25482;DHT22;13395;50.752;4.268;2024-02-15T06:29:56;14.20;99.90
25482;DHT22;13395;50.752;4.268;2024-02-15T06:32:41;14.20;99.90
25482;DHT22;13395;50.752;4.268;2024-02-15T06:35:25;14.20;99.90
25482;DHT22;13395;50.752;4.268;2024-02-15T06:38:09;14.20;99.90
25482;DHT22;13395;50.752;4.268;2024-02-15T06:40:53;14.20;99.90
25482;DHT22;13395;50.752;4.268;2024-02-15T06:43:19;14.20;99.90
25482;DHT22;13395;50.752;4.268;2024-02-15T06:45:45;14.20;99.90
25482;DHT22;13395;50.752;4.268;2024-02-15T06:48:12;14.30;99.90
25482;DHT22;13395;50.752;4.268;2024-02-15T06:50:38;14.30;99.90
25482;DHT22;13395;50.752;4.268;2024-02-15T06:53:04;14.30;99.90
25482;DHT22;13395;50.752;4.268;2024-02-15T06:55:30;14.30;99.90
25482;DHT22;13395;50.752;4.268;2024-02-15T06:57:56;14.40;99.90
25482;DHT22;13395;50.752;4.268;2024-02-15T07:00:21;14.30;99.90
25482;DHT22;13395;50.752;4.268;2024-02-15T07:02:47;14.20;99.90
25482;DHT22;13395;50.752;4.268;2024-02-15T07:05:14;14.30;99.90
25482;DHT22;13395;50.752;4.268;2024-02-15T07:07:39;14.30;99.90
25482;DHT22;13395;50.752;4.268;2024-02-15T07:10:08;14.40;99.90
25482;DHT22;13395;50.752;4.268;2024-02-15T07:12:34;14.50;99.90
25482;DHT22;13395;50.752;4.268;2024-02-15T07:14:59;14.50;99.90
25482;DHT22;13395;50.752;4.268;2024-02-15T07:17:27;14.40;99.90
25482;DHT22;13395;50.752;4.268;2024-02-15T07:19:52;14.40;99.90
25482;DHT22;13395;50.752;4.268;2024-02-15T07:22:18;14.50;99.90
25482;DHT22;13395;50.752;4.268;2024-02-15T07:24:44;14.50;99.90
25482;DHT22;13395;50.752;4.268;2024-02-15T07:27:09;14.50;99.90
25482;DHT22;13395;50.752;4.268;2024-02-15T07:29:35;14.50;99.90
25482;DHT22;13395;50.752;4.268;2024-02-15T07:32:03;14.50;99.90
25482;DHT22;13395;50.752;4.268;2024-02-15T07:34:32;14.60;99.90
25482;DHT22;13395;50.752;4.268;2024-02-15T07:37:02;14.60;99.90
25482;DHT22;13395;50.752;4.268;2024-02-15T07:39:27;14.60;99.90
25482;DHT22;13395;50.752;4.268;2024-02-15T07:41:53;14.60;99.90
25482;DHT22;13395;50.752;4.268;2024-02-15T07:44:20;14.60;99.90
25482;DHT22;13395;50.752;4.268;2024-02-15T07:46:46;14.70;99.90
25482;DHT22;13395;50.752;4.268;2024-02-15T07:49:11;14.70;99.90
25482;DHT22;13395;50.752;4.268;2024-02-15T07:51:37;14.70;99.90
25482;DHT22;13395;50.752;4.268;2024-02-15T07:54:02;14.70;99.90
25482;DHT22;13395;50.752;4.268;2024-02-15T07:56:28;14.70;99.90
25482;DHT22;13395;50.752;4.268;2024-02-15T07:58:54;14.80;99.90
25482;DHT22;13395;50.752;4.268;2024-02-15T08:01:19;14.80;99.90
25482;DHT22;13395;50.752;4.268;2024-02-15T08:03:48;14.90;99.90
25482;DHT22;13395;50.752;4.268;2024-02-15T08:06:14;14.90;99.90
25482;DHT22;13395;50.752;4.268;2024-02-15T08:08:40;14.90;99.90
25482;DHT22;13395;50.752;4.268;2024-02-15T08:11:12;14.90;99.90
25482;DHT22;13395;50.752;4.268;2024-02-15T08:13:43;14.90;99.90
25482;DHT22;13395;50.752;4.268;2024-02-15T08:16:08;15.10;99.90
25482;DHT22;13395;50.752;4.268;2024-02-15T08:18:34;15.00;99.90
25482;DHT22;13395;50.752;4.268;2024-02-15T08:21:00;15.10;99.90
25482;DHT22;13395;50.752;4.268;2024-02-15T08:23:26;15.10;99.90
25482;DHT22;13395;50.752;4.268;2024-02-15T08:25:52;15.20;99.90
25482;DHT22;13395;50.752;4.268;2024-02-15T08:28:19;15.10;99.90
25482;DHT22;13395;50.752;4.268;2024-02-15T08:30:46;15.10;99.90
25482;DHT22;13395;50.752;4.268;2024-02-15T08:33:12;15.30;99.90
25482;DHT22;13395;50.752;4.268;2024-02-15T08:35:38;15.20;99.90
25482;DHT22;13395;50.752;4.268;2024-02-15T08:38:05;15.30;99.90
25482;DHT22;13395;50.752;4.268;2024-02-15T08:40:31;15.40;99.90
25482;DHT22;13395;50.752;4.268;2024-02-15T08:42:56;15.50;99.90
25482;DHT22;13395;50.752;4.268;2024-02-15T08:45:22;15.50;99.90
25482;DHT22;13395;50.752;4.268;2024-02-15T08:47:48;15.60;99.90
25482;DHT22;13395;50.752;4.268;2024-02-15T08:50:18;15.60;99.90
25482;DHT22;13395;50.752;4.268;2024-02-15T08:52:44;15.70;99.90
25482;DHT22;13395;50.752;4.268;2024-02-15T08:55:10;15.80;99.90
25482;DHT22;13395;50.752;4.268;2024-02-15T08:57:39;15.80;99.90
25482;DHT22;13395;50.752;4.268;2024-02-15T09:00:06;15.90;99.90
25482;DHT22;13395;50.752;4.268;2024-02-15T09:02:38;16.00;99.90
25482;DHT22;13395;50.752;4.268;2024-02-15T09:05:05;16.10;99.90
25482;DHT22;13395;50.752;4.268;2024-02-15T09:07:31;16.10;99.90
25482;DHT22;13395;50.752;4.268;2024-02-15T09:09:57;16.20;99.90
25482;DHT22;13395;50.752;4.268;2024-02-15T09:12:22;16.10;99.90
25482;DHT22;13395;50.752;4.268;2024-02-15T09:14:48;16.20;99.90
25482;DHT22;13395;50.752;4.268;2024-02-15T09:17:14;16.00;99.90
25482;DHT22;13395;50.752;4.268;2024-02-15T09:19:39;16.10;99.90
25482;DHT22;13395;50.752;4.268;2024-02-15T09:22:05;16.30;99.90
25482;DHT22;13395;50.752;4.268;2024-02-15T09:24:31;16.50;99.90
25482;DHT22;13395;50.752;4.268;2024-02-15T09:26:59;16.90;99.90
25482;DHT22;13395;50.752;4.268;2024-02-15T09:29:27;17.60;99.90
25482;DHT22;13395;50.752;4.268;2024-02-15T09:31:52;18.20;99.90
25482;DHT22;13395;50.752;4.268;2024-02-15T09:34:18;18.60;99.90
25482;DHT22;13395;50.752;4.268;2024-02-15T09:36:43;19.00;99.90
25482;DHT22;13395;50.752;4.268;2024-02-15T09:39:09;19.60;99.90
25482;DHT22;13395;50.752;4.268;2024-02-15T09:41:38;19.80;99.90
25482;DHT22;13395;50.752;4.268;2024-02-15T09:44:04;20.50;99.90
25482;DHT22;13395;50.752;4.268;2024-02-15T09:46:32;20.90;99.90
25482;DHT22;13395;50.752;4.268;2024-02-15T09:49:00;20.90;99.90
25482;DHT22;13395;50.752;4.268;2024-02-15T09:51:25;20.60;99.90
25482;DHT22;13395;50.752;4.268;2024-02-15T09:53:52;20.40;99.90
25482;DHT22;13395;50.752;4.268;2024-02-15T09:56:18;20.30;99.90
25482;DHT22;13395;50.752;4.268;2024-02-15T09:58:46;20.00;99.90
25482;DHT22;13395;50.752;4.268;2024-02-15T10:01:12;19.80;99.90
25482;DHT22;13395;50.752;4.268;2024-02-15T10:03:38;19.70;99.90
25482;DHT22;13395;50.752;4.268;2024-02-15T10:06:05;19.60;99.90
25482;DHT22;13395;50.752;4.268;2024-02-15T10:08:31;19.30;99.90
25482;DHT22;13395;50.752;4.268;2024-02-15T10:11:09;19.20;99.90
25482;DHT22;13395;50.752;4.268;2024-02-15T10:13:35;19.30;99.90
25482;DHT22;13395;50.752;4.268;2024-02-15T10:16:16;19.60;99.90
25482;DHT22;13395;50.752;4.268;2024-02-15T10:18:42;19.70;99.90
25482;DHT22;13395;50.752;4.268;2024-02-15T10:21:08;19.90;99.90
25482;DHT22;13395;50.752;4.268;2024-02-15T10:23:33;19.90;99.90
25482;DHT22;13395;50.752;4.268;2024-02-15T10:25:59;20.00;99.90
25482;DHT22;13395;50.752;4.268;2024-02-15T10:28:26;20.50;99.90
25482;DHT22;13395;50.752;4.268;2024-02-15T10:30:54;20.30;99.90
25482;DHT22;13395;50.752;4.268;2024-02-15T10:33:21;20.70;99.90
25482;DHT22;13395;50.752;4.268;2024-02-15T10:35:54;21.00;99.90
25482;DHT22;13395;50.752;4.268;2024-02-15T10:38:29;21.60;99.90
25482;DHT22;13395;50.752;4.268;2024-02-15T10:41:02;21.80;99.90
25482;DHT22;13395;50.752;4.268;2024-02-15T10:43:30;21.50;99.90
25482;DHT22;13395;50.752;4.268;2024-02-15T10:45:56;21.60;99.90
25482;DHT22;13395;50.752;4.268;2024-02-15T10:48:22;22.20;99.90
25482;DHT22;13395;50.752;4.268;2024-02-15T10:50:47;22.40;99.90
25482;DHT22;13395;50.752;4.268;2024-02-15T10:58:22;21.20;99.90
25482;DHT22;13395;50.752;4.268;2024-02-15T11:00:51;20.60;99.90
25482;DHT22;13395;50.752;4.268;2024-02-15T11:03:19;20.30;99.90
25482;DHT22;13395;50.752;4.268;2024-02-15T11:05:46;20.10;99.90
25482;DHT22;13395;50.752;4.268;2024-02-15T11:08:13;20.00;99.90
25482;DHT22;13395;50.752;4.268;2024-02-15T11:10:38;20.00;99.90
25482;DHT22;13395;50.752;4.268;2024-02-15T11:13:08;19.90;99.90
25482;DHT22;13395;50.752;4.268;2024-02-15T11:18:00;20.40;99.90
25482;DHT22;13395;50.752;4.268;2024-02-15T11:22:58;21.80;99.90
25482;DHT22;13395;50.752;4.268;2024-02-15T11:25:33;21.30;99.90
25482;DHT22;13395;50.752;4.268;2024-02-15T11:30:43;21.30;99.90
25482;DHT22;13395;50.752;4.268;2024-02-15T11:36:01;20.70;99.90
25482;DHT22;13395;50.752;4.268;2024-02-15T11:38:27;20.60;99.90
25482;DHT22;13395;50.752;4.268;2024-02-15T11:46:32;20.60;99.90
25482;DHT22;13395;50.752;4.268;2024-02-15T11:49:00;20.50;99.90
25482;DHT22;13395;50.752;4.268;2024-02-15T11:54:01;20.60;99.90
25482;DHT22;13395;50.752;4.268;2024-02-15T11:59:09;20.10;99.90
25482;DHT22;13395;50.752;4.268;2024-02-15T12:01:43;19.90;99.90
25482;DHT22;13395;50.752;4.268;2024-02-15T12:04:27;19.90;99.90
25482;DHT22;13395;50.752;4.268;2024-02-15T12:07:13;20.00;99.90
25482;DHT22;13395;50.752;4.268;2024-02-15T12:10:00;19.80;99.90
25482;DHT22;13395;50.752;4.268;2024-02-15T12:12:53;19.60;99.90
25482;DHT22;13395;50.752;4.268;2024-02-15T12:15:37;19.50;99.90
25482;DHT22;13395;50.752;4.268;2024-02-15T12:18:22;19.70;99.90
25482;DHT22;13395;50.752;4.268;2024-02-15T12:21:11;20.00;99.90
25482;DHT22;13395;50.752;4.268;2024-02-15T12:23:38;20.00;99.90
25482;DHT22;13395;50.752;4.268;2024-02-15T12:26:06;20.00;99.90
25482;DHT22;13395;50.752;4.268;2024-02-15T12:28:32;20.00;99.90
25482;DHT22;13395;50.752;4.268;2024-02-15T12:31:00;20.00;99.90
25482;DHT22;13395;50.752;4.268;2024-02-15T12:33:26;20.00;99.90
25482;DHT22;13395;50.752;4.268;2024-02-15T12:36:03;20.10;99.90
25482;DHT22;13395;50.752;4.268;2024-02-15T12:38:29;20.20;99.90
25482;DHT22;13395;50.752;4.268;2024-02-15T12:40:54;20.30;99.90
25482;DHT22;13395;50.752;4.268;2024-02-15T12:43:20;20.20;99.90
25482;DHT22;13395;50.752;4.268;2024-02-15T12:45:46;20.10;99.90
25482;DHT22;13395;50.752;4.268;2024-02-15T12:48:11;20.30;99.90
25482;DHT22;13395;50.752;4.268;2024-02-15T12:50:37;20.70;99.90
25482;DHT22;13395;50.752;4.268;2024-02-15T12:53:03;21.00;99.90
25482;DHT22;13395;50.752;4.268;2024-02-15T12:55:32;20.60;99.90
25482;DHT22;13395;50.752;4.268;2024-02-15T12:58:00;20.30;99.90
25482;DHT22;13395;50.752;4.268;2024-02-15T13:00:29;20.40;99.90
25482;DHT22;13395;50.752;4.268;2024-02-15T13:02:57;20.50;99.90
25482;DHT22;13395;50.752;4.268;2024-02-15T13:05:24;20.80;99.90
25482;DHT22;13395;50.752;4.268;2024-02-15T13:07:50;21.90;99.90
25482;DHT22;13395;50.752;4.268;2024-02-15T13:10:16;22.40;99.90
25482;DHT22;13395;50.752;4.268;2024-02-15T13:12:42;22.60;99.50
25482;DHT22;13395;50.752;4.268;2024-02-15T13:15:09;22.50;99.30
25482;DHT22;13395;50.752;4.268;2024-02-15T13:17:39;22.60;99.10
25482;DHT22;13395;50.752;4.268;2024-02-15T13:20:05;22.40;98.50
25482;DHT22;13395;50.752;4.268;2024-02-15T13:22:36;22.00;98.00
25482;DHT22;13395;50.752;4.268;2024-02-15T13:25:04;21.30;98.70
25482;DHT22;13395;50.752;4.268;2024-02-15T13:27:29;21.00;98.90
25482;DHT22;13395;50.752;4.268;2024-02-15T13:29:55;21.00;99.20
25482;DHT22;13395;50.752;4.268;2024-02-15T13:32:21;21.10;99.20
25482;DHT22;13395;50.752;4.268;2024-02-15T13:34:49;21.40;99.20
25482;DHT22;13395;50.752;4.268;2024-02-15T13:37:21;21.70;99.00
25482;DHT22;13395;50.752;4.268;2024-02-15T13:39:48;21.40;97.80
25482;DHT22;13395;50.752;4.268;2024-02-15T13:42:14;21.10;98.60
25482;DHT22;13395;50.752;4.268;2024-02-15T13:44:40;20.90;98.90
25482;DHT22;13395;50.752;4.268;2024-02-15T13:47:06;20.90;99.30
25482;DHT22;13395;50.752;4.268;2024-02-15T13:49:31;20.80;99.80
25482;DHT22;13395;50.752;4.268;2024-02-15T13:52:00;20.60;99.80
25482;DHT22;13395;50.752;4.268;2024-02-15T13:54:29;20.50;99.90
25482;DHT22;13395;50.752;4.268;2024-02-15T13:56:55;20.30;99.90
25482;DHT22;13395;50.752;4.268;2024-02-15T13:59:22;20.60;99.90
25482;DHT22;13395;50.752;4.268;2024-02-15T14:01:48;20.70;99.90
25482;DHT22;13395;50.752;4.268;2024-02-15T14:04:15;20.70;99.90
25482;DHT22;13395;50.752;4.268;2024-02-15T14:06:41;20.60;99.90
25482;DHT22;13395;50.752;4.268;2024-02-15T14:09:09;20.20;99.90
25482;DHT22;13395;50.752;4.268;2024-02-15T14:11:36;20.10;99.90
25482;DHT22;13395;50.752;4.268;2024-02-15T14:14:03;20.10;99.90
25482;DHT22;13395;50.752;4.268;2024-02-15T14:16:28;19.90;99.90
25482;DHT22;13395;50.752;4.268;2024-02-15T14:18:55;19.50;99.90
25482;DHT22;13395;50.752;4.268;2024-02-15T14:21:20;19.60;99.90
25482;DHT22;13395;50.752;4.268;2024-02-15T14:23:46;19.40;99.90
25482;DHT22;13395;50.752;4.268;2024-02-15T14:26:11;19.40;99.90
25482;DHT22;13395;50.752;4.268;2024-02-15T14:28:37;19.30;99.90
25482;DHT22;13395;50.752;4.268;2024-02-15T14:31:06;19.30;99.90
25482;DHT22;13395;50.752;4.268;2024-02-15T14:33:50;19.40;99.90
25482;DHT22;13395;50.752;4.268;2024-02-15T14:36:16;19.50;99.90
25482;DHT22;13395;50.752;4.268;2024-02-15T14:38:42;19.50;99.90
25482;DHT22;13395;50.752;4.268;2024-02-15T14:41:09;19.60;99.90
25482;DHT22;13395;50.752;4.268;2024-02-15T14:43:36;19.60;99.90
25482;DHT22;13395;50.752;4.268;2024-02-15T14:46:01;19.50;99.90
25482;DHT22;13395;50.752;4.268;2024-02-15T14:48:30;19.40;99.90
25482;DHT22;13395;50.752;4.268;2024-02-15T14:50:56;19.40;99.90
25482;DHT22;13395;50.752;4.268;2024-02-15T14:53:23;19.40;99.90
25482;DHT22;13395;50.752;4.268;2024-02-15T14:55:49;19.50;99.90
25482;DHT22;13395;50.752;4.268;2024-02-15T14:58:15;19.60;99.90
25482;DHT22;13395;50.752;4.268;2024-02-15T15:00:44;19.60;99.90
25482;DHT22;13395;50.752;4.268;2024-02-15T15:03:12;19.70;99.90
25482;DHT22;13395;50.752;4.268;2024-02-15T15:05:38;19.60;99.90
25482;DHT22;13395;50.752;4.268;2024-02-15T15:08:24;19.50;99.90
25482;DHT22;13395;50.752;4.268;2024-02-15T15:11:08;19.40;99.90
25482;DHT22;13395;50.752;4.268;2024-02-15T15:13:52;19.30;99.90
25482;DHT22;13395;50.752;4.268;2024-02-15T15:16:18;19.20;99.90
25482;DHT22;13395;50.752;4.268;2024-02-15T15:18:48;19.10;99.90
25482;DHT22;13395;50.752;4.268;2024-02-15T15:21:17;19.10;99.90
25482;DHT22;13395;50.752;4.268;2024-02-15T15:23:43;19.20;99.90
25482;DHT22;13395;50.752;4.268;2024-02-15T15:26:10;19.20;99.90
25482;DHT22;13395;50.752;4.268;2024-02-15T15:28:39;19.20;99.90
25482;DHT22;13395;50.752;4.268;2024-02-15T15:31:04;19.20;99.90
25482;DHT22;13395;50.752;4.268;2024-02-15T15:33:32;19.20;99.90
25482;DHT22;13395;50.752;4.268;2024-02-15T15:36:01;19.00;99.90
25482;DHT22;13395;50.752;4.268;2024-02-15T15:38:28;18.90;99.90
25482;DHT22;13395;50.752;4.268;2024-02-15T15:40:54;18.70;99.90
25482;DHT22;13395;50.752;4.268;2024-02-15T15:43:19;18.80;99.90
25482;DHT22;13395;50.752;4.268;2024-02-15T15:45:45;18.90;99.90
25482;DHT22;13395;50.752;4.268;2024-02-15T15:48:11;18.70;99.90
25482;DHT22;13395;50.752;4.268;2024-02-15T15:50:37;18.60;99.90
25482;DHT22;13395;50.752;4.268;2024-02-15T15:53:03;18.60;99.90
25482;DHT22;13395;50.752;4.268;2024-02-15T15:55:28;18.60;99.90
25482;DHT22;13395;50.752;4.268;2024-02-15T15:57:55;18.40;99.90
25482;DHT22;13395;50.752;4.268;2024-02-15T16:00:21;18.40;99.90